M I D A S
Marine Information and Data Acquisition System
Tripno 705 of the Zeeleeuw from 2004-05-03 06:37:17 to 2004-05-03 13:20:30
Back to CruiseResearch ActivitiesStationsMapUnderway DataData graphs

EquipmentUnitsComment
TimeDGPSUTC
LatitudeDGPSDM.mWGS84
LongitudeDGPSDM.mWGS84
HeadingGyrodeg 
SOGDGPSknotsSpeed over ground
COGDGPSdegCourse over ground
DepthEcho soundermeters200 kHz
Missing or incorrect values are displayed as -999
Navigation data collected by the RV Zeeleeuw from 2004-05-03 06:37:17 to 2004-05-03 13:20:30
Time Latitude Longitude Heading SOG COG Depth
2004-05-03 06:38:20 51°13.599 2°56.088 118.4 1.9 294 6.6
2004-05-03 06:39:21 51°13.627 2°55.999 120.2 4.8 296 -999
2004-05-03 06:40:21 51°13.663 2°55.874 113.1 5.3 291 -999
2004-05-03 06:41:20 51°13.675 2°55.754 87.2 2.7 268 10.1
2004-05-03 06:42:20 51°13.702 2°55.752 10.8 4.3 1 12.7
2004-05-03 06:43:20 51°13.782 2°55.682 332.1 6.2 327 8.7
2004-05-03 06:44:20 51°13.881 2°55.596 339.5 7 334 8.5
2004-05-03 06:45:20 51°13.997 2°55.515 343.5 8.3 338 10
2004-05-03 06:46:20 51°14.132 2°55.419 339.6 9.5 334 10
2004-05-03 06:47:20 51°14.264 2°55.264 322.2 10.3 316 10.5
2004-05-03 06:48:20 51°14.39 2°55.026 316.4 13 307 10.1
2004-05-03 06:49:20 51°14.455 2°54.686 275.8 14.1 267 9.8
2004-05-03 06:50:20 51°14.367 2°54.336 244.7 14.3 240 8.6
2004-05-03 06:51:20 51°14.254 2°53.997 250.2 14.5 244 8.2
2004-05-03 06:52:20 51°14.134 2°53.662 242 14.7 238 8.4
2004-05-03 06:53:20 51°14.021 2°53.316 246.6 14.8 241 8.7
2004-05-03 06:54:20 51°13.902 2°52.971 250.4 14.9 244 9.2
2004-05-03 06:55:20 51°13.782 2°52.623 248.1 15 241 9.4
2004-05-03 06:56:20 51°13.663 2°52.274 246.8 15 241 9.6
2004-05-03 06:57:20 51°13.544 2°51.923 246.7 15.1 241 9.8
2004-05-03 06:58:20 51°13.424 2°51.572 247.3 15.1 242 9.8
2004-05-03 06:59:20 51°13.307 2°51.22 246.6 14.9 241 9.9
2004-05-03 07:00:20 51°13.19 2°50.872 247.2 14.9 242 10.3
2004-05-03 07:01:18 51°13.076 2°50.534 247.1 15 242 10.4
2004-05-03 07:02:20 51°12.956 2°50.169 247.5 15.1 242 10.6
2004-05-03 07:03:20 51°12.839 2°49.816 246.7 15.1 243 10.8
2004-05-03 07:04:20 51°12.723 2°49.461 247.2 15.1 242 10.9
2004-05-03 07:05:20 51°12.606 2°49.107 247.6 15.1 243 11.1
2004-05-03 07:06:20 51°12.489 2°48.751 247.5 15.1 243 11.3
2004-05-03 07:07:20 51°12.368 2°48.399 243.8 15.2 239 11.3
2004-05-03 07:08:20 51°12.241 2°48.054 243.4 15.1 239 11.5
2004-05-03 07:09:20 51°12.115 2°47.709 244.5 15 240 11.4
2004-05-03 07:10:20 51°11.989 2°47.365 244.4 15 240 11.3
2004-05-03 07:11:20 51°11.864 2°47.02 244.4 15 240 11.2
2004-05-03 07:12:20 51°11.738 2°46.676 244 15 240 11.1
2004-05-03 07:13:20 51°11.613 2°46.335 244.4 14.9 239 11
2004-05-03 07:14:20 51°11.488 2°45.994 244.5 14.9 240 10.6
2004-05-03 07:15:20 51°11.364 2°45.652 244.4 14.9 240 10.3
2004-05-03 07:16:20 51°11.241 2°45.31 244.5 14.9 240 9.9
2004-05-03 07:17:21 51°11.135 2°44.947 249.7 14.9 245 9.8
2004-05-03 07:18:20 51°11.032 2°44.595 249.4 14.9 244 9.6
2004-05-03 07:19:20 51°10.928 2°44.238 250.7 14.8 246 9.4
2004-05-03 07:20:20 51°10.824 2°43.881 251.4 14.7 247 9.2
2004-05-03 07:21:21 51°10.719 2°43.521 250.4 14.7 247 9
2004-05-03 07:22:21 51°10.613 2°43.169 248 14.7 245 8.8
2004-05-03 07:23:20 51°10.513 2°42.821 247.8 14.7 243 8.7
2004-05-03 07:24:20 51°10.41 2°42.468 251.8 14.7 246 8.6
2004-05-03 07:25:20 51°10.305 2°42.118 250.8 14.6 247 8.5
2004-05-03 07:26:20 51°10.197 2°41.772 246.3 14.6 244 8.5
2004-05-03 07:27:20 51°10.1 2°41.42 246.9 14.5 242 8.6
2004-05-03 07:28:20 51°10.001 2°41.069 250.7 14.5 245 8.7
2004-05-03 07:29:20 51°9.902 2°40.719 256.1 14.4 253 8.8
2004-05-03 07:30:20 51°9.824 2°40.355 254.4 14.5 251 9
2004-05-03 07:31:20 51°9.745 2°39.99 253.6 14.6 250 9.1
2004-05-03 07:32:20 51°9.667 2°39.627 253.6 14.5 250 9.3
2004-05-03 07:33:20 51°9.59 2°39.263 254.7 14.5 250 9.5
2004-05-03 07:34:20 51°9.51 2°38.899 254.9 14.6 251 9.8
2004-05-03 07:35:20 51°9.43 2°38.536 253.8 14.6 250 10
2004-05-03 07:36:20 51°9.351 2°38.171 254.4 14.6 251 10.1
2004-05-03 07:37:20 51°9.273 2°37.81 254.7 14.5 251 10.1
2004-05-03 07:38:20 51°9.197 2°37.449 254.6 14.4 250 10.1
2004-05-03 07:39:20 51°9.093 2°37.239 216.5 7.4 213 9.9
2004-05-03 07:40:20 51°9.039 2°37.174 245 1.7 238 9.6
2004-05-03 07:41:21 51°9.033 2°37.171 272.4 0.8 253 -999
2004-05-03 07:42:20 51°9.072 2°37.121 3.6 4.6 4 9.9
2004-05-03 07:43:21 51°9.108 2°37.219 91.1 4.2 93 10.2
2004-05-03 07:44:20 51°9.101 2°37.254 112.1 0.5 194 10
2004-05-03 07:45:20 51°9.095 2°37.252 128.6 0.3 181 10
2004-05-03 07:46:21 51°9.088 2°37.253 138.7 0.4 175 10
2004-05-03 07:47:20 51°9.08 2°37.254 148.2 0.5 179 9.9
2004-05-03 07:48:20 51°9.071 2°37.254 153.8 0.5 178 9.9
2004-05-03 07:49:20 51°9.063 2°37.254 158.3 0.6 178 9.8
2004-05-03 07:50:21 51°9.053 2°37.254 161.7 0.6 179 9.8
2004-05-03 07:51:20 51°9.043 2°37.254 164.5 0.6 182 9.8
2004-05-03 07:52:20 51°9.034 2°37.255 165.6 0.6 177 9.7
2004-05-03 07:53:20 51°9.023 2°37.256 168.2 0.6 180 9.7
2004-05-03 07:54:20 51°9.013 2°37.255 172.7 0.6 179 9.7
2004-05-03 07:55:20 51°9.003 2°37.255 177.8 0.6 182 9.6
2004-05-03 07:56:20 51°8.992 2°37.253 181.4 0.7 181 9.6
2004-05-03 07:57:20 51°8.981 2°37.254 181.3 0.7 182 9.5
2004-05-03 07:58:20 51°8.97 2°37.253 181.9 0.9 183 9.5
2004-05-03 07:59:20 51°8.947 2°37.248 202.6 1.7 199 9.4
2004-05-03 08:00:20 51°8.919 2°37.218 236.1 2.5 230 9.3
2004-05-03 08:01:20 51°8.907 2°37.153 285 2.6 279 9.3
2004-05-03 08:02:21 51°8.939 2°37.098 347.5 3 342 9.4
2004-05-03 08:03:20 51°8.983 2°37.118 39.6 3.1 35 9.6
2004-05-03 08:04:20 51°9.023 2°37.181 52.6 3.6 50 9.8
2004-05-03 08:05:20 51°9.058 2°37.261 59.9 3.6 58 10.1
2004-05-03 08:06:20 51°9.085 2°37.338 63.6 3.1 62 10.2
2004-05-03 08:07:20 51°9.109 2°37.406 58.8 2.8 57 10.4
2004-05-03 08:08:20 51°9.135 2°37.466 54.2 2.7 52 10.5
2004-05-03 08:09:20 51°9.163 2°37.524 53.4 2.7 53 10.6
2004-05-03 08:10:20 51°9.19 2°37.581 53.6 2.7 52 10.8
2004-05-03 08:11:20 51°9.217 2°37.638 53.7 2.7 52 10.9
2004-05-03 08:12:20 51°9.241 2°37.701 65.3 2.8 66 11
2004-05-03 08:13:20 51°9.252 2°37.772 82.5 2.8 84 11
2004-05-03 08:14:20 51°9.249 2°37.847 99.3 2.9 100 10.9
2004-05-03 08:15:20 51°9.24 2°37.923 98.5 2.9 100 10.8
2004-05-03 08:16:20 51°9.235 2°37.998 89.1 2.9 90 10.8
2004-05-03 08:17:20 51°9.241 2°38.073 79.6 2.8 82 10.7
2004-05-03 08:18:20 51°9.248 2°38.149 82.4 2.9 83 10.7
2004-05-03 08:19:20 51°9.251 2°38.226 86.8 2.9 88 10.6
2004-05-03 08:20:20 51°9.249 2°38.302 95.5 2.9 97 10.5
2004-05-03 08:21:20 51°9.24 2°38.378 103.6 2.9 105 10.4
2004-05-03 08:22:20 51°9.225 2°38.451 111.4 2.7 112 10.2
2004-05-03 08:23:20 51°9.208 2°38.51 122.4 2.2 121 10.1
2004-05-03 08:24:20 51°9.188 2°38.554 131.8 1.9 129 10
2004-05-03 08:25:20 51°9.169 2°38.589 138 1.6 132 9.8
2004-05-03 08:26:20 51°9.152 2°38.619 143.5 1.4 133 9.7
2004-05-03 08:27:21 51°9.136 2°38.645 147.1 1.3 135 9.7
2004-05-03 08:28:20 51°9.12 2°38.703 98.3 4 89 9.5
2004-05-03 08:29:20 51°9.174 2°38.766 2.2 4.8 350 9.7
2004-05-03 08:30:20 51°9.242 2°38.635 300.9 9.5 295 10.2
2004-05-03 08:31:20 51°9.288 2°38.346 281.1 12.9 275 10.6
2004-05-03 08:32:20 51°9.275 2°37.995 267.1 13.5 262 11.1
2004-05-03 08:33:20 51°9.246 2°37.639 267 13.6 262 11.4
2004-05-03 08:34:20 51°9.214 2°37.284 263.9 13.6 259 11.7
2004-05-03 08:35:20 51°9.177 2°36.93 265.9 13.6 260 12.5
2004-05-03 08:36:20 51°9.124 2°36.578 262.7 13.6 257 13.3
2004-05-03 08:37:20 51°9.063 2°36.23 254.9 13.7 250 14.5
2004-05-03 08:38:20 51°8.983 2°35.889 254 13.7 250 15.3
2004-05-03 08:39:20 51°8.905 2°35.548 255.1 13.7 250 16
2004-05-03 08:40:20 51°8.829 2°35.211 255.1 13.1 251 16.8
2004-05-03 08:41:20 51°8.761 2°34.908 255.2 11.9 250 17.6
2004-05-03 08:42:18 51°8.699 2°34.622 255.4 11.8 251 18
2004-05-03 08:43:20 51°8.632 2°34.317 254.8 11.8 250 18.2
2004-05-03 08:44:20 51°8.566 2°34.025 255.2 11.7 251 18.3
2004-05-03 08:45:20 51°8.5 2°33.734 255.4 11.7 250 18.3
2004-05-03 08:46:20 51°8.413 2°33.464 236 11.3 227 17.8
2004-05-03 08:47:20 51°8.289 2°33.289 229.3 7.6 223 18.2
2004-05-03 08:48:20 51°8.21 2°33.198 216.7 4.6 207 18.4
2004-05-03 08:49:20 51°8.158 2°33.161 224.6 2.6 210 17.9
2004-05-03 08:50:20 51°8.135 2°33.125 248.3 1.5 237 17.7
2004-05-03 08:51:20 51°8.129 2°33.093 264.6 1.1 266 17.8
2004-05-03 08:52:20 51°8.131 2°33.066 268 1 277 18
2004-05-03 08:53:20 51°8.134 2°33.041 265.1 0.9 277 18
2004-05-03 08:54:20 51°8.134 2°33.02 256.2 0.6 270 18.2
2004-05-03 08:55:20 51°8.134 2°33.01 251.6 0.2 262 18.2
2004-05-03 08:56:20 51°8.135 2°33.006 248 0.1 354 18.2
2004-05-03 08:57:20 51°8.136 2°33.009 243.8 0.2 65 18.2
2004-05-03 08:58:20 51°8.137 2°33.018 238.4 0.4 73 18.3
2004-05-03 08:59:20 51°8.138 2°33.031 231.8 0.5 78 18.3
2004-05-03 09:00:20 51°8.14 2°33.047 222.9 0.7 82 18.3
2004-05-03 09:01:20 51°8.142 2°33.068 215.4 0.8 85 18.4
2004-05-03 09:02:20 51°8.143 2°33.091 208.1 0.9 83 18.4
2004-05-03 09:03:20 51°8.146 2°33.118 199.2 1.1 85 18.2
2004-05-03 09:04:20 51°8.113 2°33.124 210.2 3.5 197 18
2004-05-03 09:05:20 51°8.064 2°33.07 231.9 3.3 222 17.4
2004-05-03 09:06:20 51°8.026 2°33.017 232.2 2.8 223 17.1
2004-05-03 09:07:20 51°7.994 2°32.971 234 2.4 224 16.6
2004-05-03 09:08:20 51°7.967 2°32.928 235.8 2.2 225 16.5
2004-05-03 09:09:20 51°7.944 2°32.886 241 2.1 232 16.2
2004-05-03 09:10:20 51°7.922 2°32.837 243.1 2.6 235 15.9
2004-05-03 09:11:20 51°7.898 2°32.772 247.8 3 244 15.9
2004-05-03 09:12:20 51°7.878 2°32.697 254.4 3.1 253 16.3
2004-05-03 09:13:20 51°7.855 2°32.627 238.1 3 230 16.1
2004-05-03 09:14:20 51°7.824 2°32.565 243.8 3 238 16.2
2004-05-03 09:15:20 51°7.8 2°32.495 248.6 3 244 16.1
2004-05-03 09:16:20 51°7.779 2°32.423 248.5 3 245 16.1
2004-05-03 09:17:20 51°7.756 2°32.351 248.2 3 244 16.1
2004-05-03 09:18:20 51°7.735 2°32.284 248.2 2.8 242 16
2004-05-03 09:19:20 51°7.715 2°32.22 249.7 2.7 245 16.1
2004-05-03 09:20:20 51°7.699 2°32.155 255.3 2.7 250 15.9
2004-05-03 09:21:20 51°7.687 2°32.086 260.5 2.7 257 16
2004-05-03 09:22:20 51°7.682 2°32.015 266.6 2.8 267 15.9
2004-05-03 09:23:20 51°7.685 2°31.941 274.5 2.8 278 16.1
2004-05-03 09:24:20 51°7.695 2°31.867 274.3 2.8 279 16.4
2004-05-03 09:25:20 51°7.693 2°31.796 260.3 2.7 259 16.9
2004-05-03 09:26:20 51°7.684 2°31.727 261.7 2.7 264 17.5
2004-05-03 09:27:20 51°7.689 2°31.654 278.4 2.9 289 18.7
2004-05-03 09:28:20 51°7.72 2°31.591 301.2 3.2 322 20.3
2004-05-03 09:29:21 51°7.774 2°31.552 322.1 3.8 344 21.6
2004-05-03 09:30:20 51°7.84 2°31.536 336.2 4.3 357 21.8
2004-05-03 09:31:20 51°7.906 2°31.545 345.8 3.8 13 21.7
2004-05-03 09:32:20 51°7.965 2°31.578 355.3 3.7 24 22.3
2004-05-03 09:33:20 51°8.017 2°31.623 357.7 3.5 30 22.8
2004-05-03 09:34:20 51°8.065 2°31.669 354.1 3.3 31 22.6
2004-05-03 09:35:20 51°8.108 2°31.712 346.9 2.9 32 22.3
2004-05-03 09:36:20 51°8.147 2°31.75 340.4 2.6 31 21.8
2004-05-03 09:37:20 51°8.181 2°31.783 331.1 2.3 32 21.7
2004-05-03 09:38:20 51°8.212 2°31.815 326.6 2.1 34 21.7
2004-05-03 09:39:20 51°8.241 2°31.848 326.3 2.1 36 21.7
2004-05-03 09:40:20 51°8.267 2°31.879 326.1 2 38 21.8
2004-05-03 09:41:20 51°8.293 2°31.911 326.6 2 39 21.6
2004-05-03 09:42:20 51°8.318 2°31.944 325.1 1.9 40 21.7
2004-05-03 09:43:20 51°8.343 2°31.978 324.2 1.9 42 21.6
2004-05-03 09:44:20 51°8.366 2°32.013 325.1 1.9 43 21.6
2004-05-03 09:45:20 51°8.391 2°32.048 327.6 1.9 43 21.6
2004-05-03 09:46:20 51°8.414 2°32.082 329.4 2 43 21.7
2004-05-03 09:47:21 51°8.438 2°32.118 329.5 2 43 21.8
2004-05-03 09:48:20 51°8.461 2°32.154 329.4 2 44 21.8
2004-05-03 09:49:20 51°8.484 2°32.191 330.2 2 45 21.8
2004-05-03 09:50:20 51°8.508 2°32.228 330.9 2 44 21.7
2004-05-03 09:51:21 51°8.531 2°32.265 329.6 2 45 21.8
2004-05-03 09:52:20 51°8.554 2°32.302 330.8 2 46 21.8
2004-05-03 09:53:21 51°8.578 2°32.34 332.9 2 45 21.9
2004-05-03 09:54:20 51°8.6 2°32.378 336.7 2 46 21.9
2004-05-03 09:55:20 51°8.624 2°32.417 340.1 2.1 45 22
2004-05-03 09:56:20 51°8.649 2°32.456 341.8 2.1 45 22
2004-05-03 09:57:20 51°8.675 2°32.495 344.9 2.1 44 22
2004-05-03 09:58:20 51°8.7 2°32.534 346.3 2.2 43 22
2004-05-03 09:59:20 51°8.727 2°32.573 349.6 2.2 43 21.9
2004-05-03 10:00:21 51°8.754 2°32.613 355.5 2.2 42 22
2004-05-03 10:01:20 51°8.78 2°32.651 356.5 2.2 43 22
2004-05-03 10:02:20 51°8.808 2°32.691 357.4 2.3 41 21.9
2004-05-03 10:03:18 51°8.834 2°32.729 357.3 2.2 43 21.8
2004-05-03 10:04:19 51°8.862 2°32.77 358.1 2.3 42 21.9
2004-05-03 10:05:20 51°8.89 2°32.811 358.5 2.3 42 21.8
2004-05-03 10:06:21 51°8.917 2°32.852   2.3 42 21.8
2004-05-03 10:07:20 51°8.944 2°32.892 2.1 2.3 44 21.6
2004-05-03 10:08:20 51°8.97 2°32.935 5.9 2.3 44 21.5
2004-05-03 10:09:21 51°8.998 2°32.979 8.7 2.3 45 21.4
2004-05-03 10:10:21 51°9.025 2°33.023 7.2 2.3 46 21.2
2004-05-03 10:11:20 51°9.052 2°33.066 6.5 2.3 46 21.1
2004-05-03 10:12:20 51°9.079 2°33.109 5.8 2.3 46 20.8
2004-05-03 10:13:20 51°9.106 2°33.154 4.8 2.3 47 20.7
2004-05-03 10:14:20 51°9.132 2°33.198 3.6 2.3 46 20.4
2004-05-03 10:15:20 51°9.158 2°33.242 2.1 2.2 46 20.2
2004-05-03 10:16:20 51°9.184 2°33.285 1.4 2.2 45 20.1
2004-05-03 10:17:20 51°9.21 2°33.328 2 2.3 47 19.8
2004-05-03 10:18:20 51°9.236 2°33.371   2.2 47 19.7
2004-05-03 10:19:20 51°9.261 2°33.414 359.1 2.2 46 19.6
2004-05-03 10:20:21 51°9.286 2°33.456 358.2 2.2 46 19.4
2004-05-03 10:21:20 51°9.31 2°33.497 358.1 2.1 45 19.3
2004-05-03 10:22:20 51°9.336 2°33.538 353.4 2.1 46 19.2
2004-05-03 10:23:20 51°9.359 2°33.576 346.9 1.9 45 19
2004-05-03 10:24:20 51°9.381 2°33.611 337.7 1.9 46 18.7
2004-05-03 10:25:21 51°9.401 2°33.645 327.9 1.7 47 18.3
2004-05-03 10:26:20 51°9.419 2°33.678 321.6 1.6 50 18.1
2004-05-03 10:27:20 51°9.436 2°33.712 321.3 1.7 52 17.8
2004-05-03 10:28:20 51°9.453 2°33.748 323.8 1.8 53 17.9
2004-05-03 10:29:20 51°9.471 2°33.785 326.2 1.7 53 17.5
2004-05-03 10:30:20 51°9.487 2°33.822 329.7 1.7 55 17.8
2004-05-03 10:31:20 51°9.504 2°33.86 334.3 1.8 54 17.4
2004-05-03 10:32:20 51°9.521 2°33.898 338.6 1.8 55 17.2
2004-05-03 10:33:20 51°9.539 2°33.939 342.3 1.8 55 16.9
2004-05-03 10:34:21 51°9.557 2°33.98 345.7 1.8 55 17.1
2004-05-03 10:35:20 51°9.575 2°34.02 349.6 1.9 56 16.9
2004-05-03 10:36:20 51°9.593 2°34.06 352.1 1.8 53 17.2
2004-05-03 10:37:20 51°9.611 2°34.1 352 1.8 53 16.4
2004-05-03 10:38:20 51°9.629 2°34.139 352.3 1.8 53 16.4
2004-05-03 10:39:20 51°9.647 2°34.177 351.3 1.8 53 16.3
2004-05-03 10:40:21 51°9.666 2°34.217 352.1 1.9 54 16.6
2004-05-03 10:41:20 51°9.683 2°34.256 353.1 1.8 54 16.4
2004-05-03 10:42:21 51°9.701 2°34.296 354.4 1.8 54 16.2
2004-05-03 10:43:20 51°9.718 2°34.337 355.4 1.8 55 15.8
2004-05-03 10:44:20 51°9.735 2°34.379 357 1.9 58 15.8
2004-05-03 10:45:20 51°9.752 2°34.422 358.5 1.9 59 15.6
2004-05-03 10:46:20 51°9.769 2°34.467 2 1.9 58 15.4
2004-05-03 10:47:21 51°9.786 2°34.511 2.1 2 58 15.5
2004-05-03 10:48:20 51°9.81 2°34.554 9.5 2.4 45 15.3
2004-05-03 10:49:20 51°9.843 2°34.603 28.4 3 45 14.9
2004-05-03 10:50:20 51°9.876 2°34.67 56.7 3.4 58 14.6
2004-05-03 10:51:20 51°9.898 2°34.754 90.9 3.4 77 14.7
2004-05-03 10:52:20 51°9.9 2°34.839 125 3 96 15
2004-05-03 10:53:20 51°9.889 2°34.909 157.9 2.5 111 16.1
2004-05-03 10:54:20 51°9.874 2°34.961 183.3 2 120 16.8
2004-05-03 10:55:20 51°9.857 2°35.003 202.2 1.6 124 18.6
2004-05-03 10:56:20 51°9.847 2°35.029 226.6 0.9 117 19.3
2004-05-03 10:57:20 51°9.845 2°35.04 254.4 0.3 9 18.9
2004-05-03 10:58:20 51°9.852 2°35.033 253.4 0.4 280 18.9
2004-05-03 10:59:20 51°9.846 2°35.019 242 0.9 227 19
2004-05-03 11:00:21 51°9.837 2°34.997 248.7 1.1 250 18.9
2004-05-03 11:01:20 51°9.834 2°34.966 253 1.3 262 19
2004-05-03 11:02:21 51°9.83 2°34.93 250.7 1.4 256 18.4
2004-05-03 11:03:20 51°9.822 2°34.897 243.8 1.4 239 18.3
2004-05-03 11:04:21 51°9.807 2°34.865 243.6 1.5 237 18.8
2004-05-03 11:05:20 51°9.795 2°34.829 247.9 1.6 246 18.7
2004-05-03 11:06:21 51°9.787 2°34.785 253.8 1.7 259 18.4
2004-05-03 11:07:20 51°9.784 2°34.739 260.1 1.8 271 18.2
2004-05-03 11:08:21 51°9.782 2°34.692 255 1.7 258 17.2
2004-05-03 11:09:21 51°9.77 2°34.652 241.3 1.7 230 17.1
2004-05-03 11:10:20 51°9.745 2°34.627 225.4 1.9 202 18.2
2004-05-03 11:11:21 51°9.716 2°34.605 232.8 1.8 214 18.7
2004-05-03 11:12:20 51°9.696 2°34.575 242.3 1.6 229 19.2
2004-05-03 11:13:20 51°9.676 2°34.535 241.9 2.7 235 19.1
2004-05-03 11:14:21 51°9.644 2°34.404 253.4 7.9 252 18.8
2004-05-03 11:15:20 51°9.62 2°34.173 267.4 9.4 266 16.8
2004-05-03 11:16:20 51°9.639 2°33.986 302.7 4.8 314 15
2004-05-03 11:17:20 51°9.696 2°33.962 353.8 3.4 10 14.3
2004-05-03 11:18:21 51°9.756 2°33.991 7.4 3.9 20 13.9
2004-05-03 11:19:20 51°9.814 2°34.037 27.5 4 35 13.8
2004-05-03 11:20:20 51°9.858 2°34.112 56.1 3.8 57 13.9
2004-05-03 11:21:21 51°9.889 2°34.198 64.9 3.6 63 13.9
2004-05-03 11:22:21 51°9.916 2°34.281 65.6 3.5 64 14
2004-05-03 11:23:21 51°9.943 2°34.364 65.9 3.4 63 13.9
2004-05-03 11:24:20 51°9.969 2°34.443 64.4 3.4 62 14.1
2004-05-03 11:25:20 51°9.995 2°34.521 64.4 3.3 63 14.2
2004-05-03 11:26:20 51°10.022 2°34.6 63.8 3.4 60 14.2
2004-05-03 11:27:21 51°10.05 2°34.679 64.9 3.3 62 14.2
2004-05-03 11:28:20 51°10.076 2°34.757 68.9 3.4 63 14.1
2004-05-03 11:29:21 51°10.101 2°34.84 71.9 3.4 65 14.3
2004-05-03 11:30:21 51°10.123 2°34.923 77.6 3.4 69 14.5
2004-05-03 11:31:21 51°10.141 2°35.008 85 3.4 74 14.5
2004-05-03 11:32:20 51°10.157 2°35.094 86.3 3.4 73 14.4
2004-05-03 11:33:21 51°10.173 2°35.179 85.2 3.4 74 14.6
2004-05-03 11:34:21 51°10.191 2°35.265 83.1 3.4 71 14.7
2004-05-03 11:35:21 51°10.208 2°35.351 82 3.4 73 14.4
2004-05-03 11:36:20 51°10.224 2°35.434 84.7 3.3 72 14.6
2004-05-03 11:37:21 51°10.24 2°35.52 88.1 3.3 75 14.5
2004-05-03 11:38:21 51°10.254 2°35.606 91.5 3.5 76 14.5
2004-05-03 11:39:21 51°10.27 2°35.693 91.8 3.3 75 14.2
2004-05-03 11:40:21 51°10.285 2°35.774 91.4 3.2 73 13.9
2004-05-03 11:41:21 51°10.301 2°35.853 92.5 3.1 73 13.8
2004-05-03 11:42:21 51°10.316 2°35.93 94.1 3 74 13.7
2004-05-03 11:43:20 51°10.341 2°36.016 60.6 4.4 52 13.6
2004-05-03 11:44:20 51°10.404 2°36.068 352 4.1 3 13.8
2004-05-03 11:45:21 51°10.452 2°36.028 283.1 2.7 294 14
2004-05-03 11:46:21 51°10.427 2°35.982 213.3 3.3 197 14.1
2004-05-03 11:47:21 51°10.363 2°35.948 212 4.5 197 14.1
2004-05-03 11:48:20 51°10.286 2°35.922 200.1 5.1 185 13.7
2004-05-03 11:49:21 51°10.231 2°35.872 253.3 3.3 263 13.9
2004-05-03 11:50:21 51°10.277 2°35.812 336.9 4.7 354 13.6
2004-05-03 11:51:21 51°10.359 2°35.875 38.8 6.5 38 14.1
2004-05-03 11:52:21 51°10.457 2°35.982 33.6 7.7 34 14.2
2004-05-03 11:53:21 51°10.581 2°36.179 57 12.1 54 13.9
2004-05-03 11:54:21 51°10.699 2°36.452 60.4 13 54 14.1
2004-05-03 11:55:21 51°10.829 2°36.739 59.4 13.7 54 14.1
2004-05-03 11:56:21 51°10.963 2°37.039 58.8 14 53 14.5
2004-05-03 11:57:21 51°11.1 2°37.341 61.4 14.1 58 14.6
2004-05-03 11:58:21 51°11.218 2°37.672 65.5 14.8 60 14.4
2004-05-03 11:59:21 51°11.335 2°38.001 66.3 12.8 60 13.4
2004-05-03 12:00:21 51°11.436 2°38.282 66 12.1 61 13.1
2004-05-03 12:01:20 51°11.533 2°38.554 65.8 12 59 12.5
2004-05-03 12:02:21 51°11.633 2°38.835 66.2 11.9 60 13
2004-05-03 12:03:21 51°11.732 2°39.107 66 11.8 60 12.7
2004-05-03 12:04:20 51°11.829 2°39.372 65 11.8 59 13
2004-05-03 12:05:20 51°11.928 2°39.642 66 11.8 61 13.1
2004-05-03 12:06:26 51°12.037 2°39.939 65.5 11.7 60 12.9
2004-05-03 12:07:26 51°12.136 2°40.206 65.4 11.7 60 13.2
2004-05-03 12:08:26 51°12.234 2°40.474 64.9 11.7 59 13.4
2004-05-03 12:10:35 51°12.444 2°41.05 65.4 11.7 61 13.2
2004-05-03 12:11:36 51°12.543 2°41.322 65.7 11.7 61 13.2
2004-05-03 12:12:36 51°12.639 2°41.591 66.7 11.7 61 13.3
2004-05-03 12:13:34 51°12.727 2°41.854 66.7 11.6 61 13.2
2004-05-03 12:14:36 51°12.823 2°42.133 66.9 11.6 61 13
2004-05-03 12:15:36 51°12.912 2°42.406 70.2 11.6 64 12.7
2004-05-03 12:16:36 51°12.999 2°42.682 69.2 11.7 63 12.4
2004-05-03 12:17:36 51°13.088 2°42.96 68.9 11.7 63 12.1
2004-05-03 12:18:36 51°13.175 2°43.239 69 11.7 63 11.8
2004-05-03 12:19:36 51°13.254 2°43.523 73.3 11.7 68 11.5
2004-05-03 12:20:36 51°13.331 2°43.805 72.5 11.6 66 12.1
2004-05-03 12:21:36 51°13.407 2°44.089 72.2 11.6 66 12.4
2004-05-03 12:22:36 51°13.482 2°44.373 72 11.7 67 12.8
2004-05-03 12:23:36 51°13.555 2°44.658 74.7 11.6 69 12.9
2004-05-03 12:24:35 51°13.625 2°44.942 73.7 11.7 68 12.4
2004-05-03 12:25:36 51°13.697 2°45.236 74 11.7 69 12
2004-05-03 12:26:35 51°13.761 2°45.524 80.5 11.7 75 11.8
2004-05-03 12:27:35 51°13.78 2°45.831 94.6 11.8 87 12.1
2004-05-03 12:28:34 51°13.793 2°46.141 94 11.9 86 11.9
2004-05-03 12:29:34 51°13.806 2°46.457 92.7 11.9 86 11.7
2004-05-03 12:30:36 51°13.823 2°46.782 92.8 11.8 86 12
2004-05-03 12:31:36 51°13.84 2°47.094 92.7 11.8 86 14.1
2004-05-03 12:32:36 51°13.857 2°47.404 91.6 11.6 85 14.3
2004-05-03 12:33:36 51°13.871 2°47.711 92.4 11.6 85 14.4
2004-05-03 12:34:36 51°13.888 2°48.018 93.3 11.5 87 14.3
2004-05-03 12:35:36 51°13.909 2°48.255 80.5 7 74 14.4
2004-05-03 12:36:36 51°13.948 2°48.376 64.5 3.8 58 14.1
2004-05-03 12:37:36 51°13.974 2°48.465 75.7 3.7 67 14.2
2004-05-03 12:38:36 51°13.999 2°48.553 74.2 3.6 66 14.1
2004-05-03 12:39:36 51°14.024 2°48.637 70.4 3.4 63 14.3
2004-05-03 12:40:36 51°14.051 2°48.713 62.4 3.3 59 14.3
2004-05-03 12:41:36 51°14.079 2°48.783 57.3 3.1 56 14.3
2004-05-03 12:42:36 51°14.108 2°48.853 58 3.1 58 14.3
2004-05-03 12:43:36 51°14.137 2°48.921 56.1 3.1 56 14.4
2004-05-03 12:44:36 51°14.167 2°48.987 52.2 3.1 54 14.3
2004-05-03 12:45:34 51°14.196 2°49.05 50.6 3.1 52 14.3
2004-05-03 12:46:36 51°14.228 2°49.113 46.3 3 51 14.1
2004-05-03 12:47:36 51°14.261 2°49.175 44.1 3 49 14.2
2004-05-03 12:48:36 51°14.294 2°49.233 39.1 3 45 14.3
2004-05-03 12:49:36 51°14.329 2°49.29 39.8 3 46 14.4
2004-05-03 12:50:36 51°14.363 2°49.349 44.5 3 49 14.4
2004-05-03 12:51:35 51°14.394 2°49.409 48.2 3.1 52 14.3
2004-05-03 12:52:34 51°14.424 2°49.473 52.9 3.1 54 14.5
2004-05-03 12:53:36 51°14.455 2°49.542 56.7 3.1 56 14.4
2004-05-03 12:54:36 51°14.485 2°49.609 50 3.1 53 14.5
2004-05-03 12:55:36 51°14.515 2°49.674 56.8 3 59 14.5
2004-05-03 12:56:36 51°14.539 2°49.744 66.8 3.1 63 14.6
2004-05-03 12:57:35 51°14.562 2°49.815 63.6 3.2 61 14.5
2004-05-03 12:58:36 51°14.591 2°49.89 56.6 3.1 58 14.5
2004-05-03 12:59:36 51°14.62 2°49.954 47.6 2.9 52 14.6
2004-05-03 13:00:36 51°14.649 2°50.01 39 2.6 49 14.6
2004-05-03 13:01:36 51°14.677 2°50.058 29.2 2.4 45 14.6
2004-05-03 13:02:36 51°14.703 2°50.099 20.5 2.1 42 14.7
2004-05-03 13:03:36 51°14.731 2°50.136 12.1 2.8 30 14.7
2004-05-03 13:04:36 51°14.827 2°50.25 54.7 10 52 14.6
2004-05-03 13:05:36 51°14.951 2°50.504 53.4 13.5 50 14.7
2004-05-03 13:06:36 51°15.043 2°50.848 85.5 14.6 80 14.7
2004-05-03 13:07:36 51°15.024 2°51.233 104.9 14.5 98 14.5
2004-05-03 13:08:36 51°14.998 2°51.615 102.5 14.5 96 13.7
2004-05-03 13:09:36 51°14.981 2°52.001 101.4 14.6 94 13.3
2004-05-03 13:10:35 51°14.966 2°52.38 101.2 14.5 93 12.7
2004-05-03 13:11:36 51°14.895 2°52.742 121.4 14.2 114 12.3
2004-05-03 13:12:36 51°14.806 2°53.094 118.3 14.3 111 12
2004-05-03 13:13:36 51°14.721 2°53.448 117 14.3 110 12.1
2004-05-03 13:14:36 51°14.647 2°53.809 116 14.4 109 12.6
2004-05-03 13:15:36 51°14.573 2°54.178 114.4 14.5 107 13.3
2004-05-03 13:16:36 51°14.513 2°54.552 113.2 14.7 105 12.8
2004-05-03 13:17:36 51°14.439 2°54.9 123.5 12.6 117 12.9
2004-05-03 13:18:36 51°14.324 2°55.157 132.6 11.6 129 13.4
2004-05-03 13:19:36 51°14.216 2°55.348 139.3 7.8 135 13